Firth, Idaho
Current Conditions -  °F | °C
As of 6:53 AM on Sunday 23 Nov 2014 (Local Time) from KIDA Reporting Station
Clear Clear  
Wind Chill: 18°   Ceiling: Unl
Heat Index: 26°   Visibility: 10mi
Dew Point: 22°   Wind: 7mph
Humidity: 84%   Direction: 190°S
Pressure: 30.05"   Gusts: NA
Location:  43.31°N, 112.18°W
Report Text: KIDA 231353Z 19006KT 10SM CLR M03/M06 A3005 RMK AO2 SLP204 T10331056
Loading
Personal Weather Stations






























Interactive Weather Map New forecast layout! Learn more

10-Day Weather Forecast

Advertisements
Track Severe Weather on mobile